sensor_id;sensor_type;location;lat;lon;timestamp;P1;durP1;ratioP1;P2;durP2;ratioP2
62957;SDS011;49056;48.352;10.926;2023-04-02T00:03:00;0.10;;;0.10;;
62957;SDS011;49056;48.352;10.926;2023-04-02T00:13:43;0.35;;;0.13;;
62957;SDS011;49056;48.352;10.926;2023-04-02T00:19:06;0.40;;;0.08;;
62957;SDS011;49056;48.352;10.926;2023-04-02T00:24:27;0.77;;;0.20;;
62957;SDS011;49056;48.352;10.926;2023-04-02T00:29:52;0.22;;;0.10;;
62957;SDS011;49056;48.352;10.926;2023-04-02T00:35:17;0.15;;;0.00;;
62957;SDS011;49056;48.352;10.926;2023-04-02T00:40:39;0.43;;;0.10;;
62957;SDS011;49056;48.352;10.926;2023-04-02T00:46:02;0.00;;;0.00;;
62957;SDS011;49056;48.352;10.926;2023-04-02T00:51:23;0.35;;;0.13;;
62957;SDS011;49056;48.352;10.926;2023-04-02T00:56:46;0.28;;;0.10;;
62957;SDS011;49056;48.352;10.926;2023-04-02T01:13:16;0.25;;;0.15;;
62957;SDS011;49056;48.352;10.926;2023-04-02T01:24:06;0.10;;;0.10;;
62957;SDS011;49056;48.352;10.926;2023-04-02T01:29:34;0.30;;;0.08;;
62957;SDS011;49056;48.352;10.926;2023-04-02T01:34:56;0.55;;;0.37;;
62957;SDS011;49056;48.352;10.926;2023-04-02T01:45:38;0.20;;;0.20;;
62957;SDS011;49056;48.352;10.926;2023-04-02T01:50:58;0.17;;;0.10;;
62957;SDS011;49056;48.352;10.926;2023-04-02T01:56:19;0.08;;;0.08;;
62957;SDS011;49056;48.352;10.926;2023-04-02T02:01:42;0.13;;;0.13;;
62957;SDS011;49056;48.352;10.926;2023-04-02T02:07:03;0.10;;;0.00;;
62957;SDS011;49056;48.352;10.926;2023-04-02T02:12:24;0.10;;;0.10;;
62957;SDS011;49056;48.352;10.926;2023-04-02T02:17:44;0.20;;;0.10;;
62957;SDS011;49056;48.352;10.926;2023-04-02T02:23:05;0.00;;;0.00;;
62957;SDS011;49056;48.352;10.926;2023-04-02T02:28:26;0.17;;;0.15;;
62957;SDS011;49056;48.352;10.926;2023-04-02T02:33:49;0.00;;;0.00;;
62957;SDS011;49056;48.352;10.926;2023-04-02T02:39:14;0.57;;;0.10;;
62957;SDS011;49056;48.352;10.926;2023-04-02T02:44:38;0.10;;;0.10;;
62957;SDS011;49056;48.352;10.926;2023-04-02T02:50:03;0.10;;;0.10;;
62957;SDS011;49056;48.352;10.926;2023-04-02T02:55:34;0.00;;;0.00;;
62957;SDS011;49056;48.352;10.926;2023-04-02T03:00:58;0.13;;;0.10;;
62957;SDS011;49056;48.352;10.926;2023-04-02T03:06:18;0.10;;;0.10;;
62957;SDS011;49056;48.352;10.926;2023-04-02T03:11:43;0.60;;;0.35;;
62957;SDS011;49056;48.352;10.926;2023-04-02T03:17:12;0.20;;;0.10;;
62957;SDS011;49056;48.352;10.926;2023-04-02T03:22:40;0.10;;;0.10;;
62957;SDS011;49056;48.352;10.926;2023-04-02T03:28:03;0.35;;;0.30;;
62957;SDS011;49056;48.352;10.926;2023-04-02T03:33:26;0.30;;;0.10;;
62957;SDS011;49056;48.352;10.926;2023-04-02T03:39:03;0.20;;;0.10;;
62957;SDS011;49056;48.352;10.926;2023-04-02T03:44:30;0.00;;;0.00;;
62957;SDS011;49056;48.352;10.926;2023-04-02T03:49:56;0.20;;;0.20;;
62957;SDS011;49056;48.352;10.926;2023-04-02T03:55:29;0.00;;;0.00;;
62957;SDS011;49056;48.352;10.926;2023-04-02T04:00:58;1.10;;;0.13;;
62957;SDS011;49056;48.352;10.926;2023-04-02T04:06:28;0.30;;;0.10;;
62957;SDS011;49056;48.352;10.926;2023-04-02T04:12:14;0.10;;;0.10;;
62957;SDS011;49056;48.352;10.926;2023-04-02T04:17:33;0.20;;;0.10;;
62957;SDS011;49056;48.352;10.926;2023-04-02T04:22:54;1.08;;;0.35;;
62957;SDS011;49056;48.352;10.926;2023-04-02T04:28:22;0.10;;;0.10;;
62957;SDS011;49056;48.352;10.926;2023-04-02T04:33:46;0.32;;;0.10;;
62957;SDS011;49056;48.352;10.926;2023-04-02T04:39:17;0.15;;;0.10;;
62957;SDS011;49056;48.352;10.926;2023-04-02T04:44:44;0.85;;;0.15;;
62957;SDS011;49056;48.352;10.926;2023-04-02T04:55:47;0.10;;;0.10;;
62957;SDS011;49056;48.352;10.926;2023-04-02T05:07:09;0.15;;;0.15;;
62957;SDS011;49056;48.352;10.926;2023-04-02T05:23:34;0.17;;;0.17;;
62957;SDS011;49056;48.352;10.926;2023-04-02T05:34:20;0.10;;;0.10;;
62957;SDS011;49056;48.352;10.926;2023-04-02T05:39:42;0.10;;;0.10;;
62957;SDS011;49056;48.352;10.926;2023-04-02T05:50:28;0.20;;;0.10;;
62957;SDS011;49056;48.352;10.926;2023-04-02T06:01:15;0.35;;;0.13;;
62957;SDS011;49056;48.352;10.926;2023-04-02T06:06:41;0.20;;;0.10;;
62957;SDS011;49056;48.352;10.926;2023-04-02T06:17:45;0.47;;;0.20;;
62957;SDS011;49056;48.352;10.926;2023-04-02T06:23:09;0.17;;;0.17;;
62957;SDS011;49056;48.352;10.926;2023-04-02T06:28:42;0.22;;;0.13;;
62957;SDS011;49056;48.352;10.926;2023-04-02T06:34:05;0.13;;;0.08;;
62957;SDS011;49056;48.352;10.926;2023-04-02T06:39:30;0.10;;;0.10;;
62957;SDS011;49056;48.352;10.926;2023-04-02T06:44:51;0.32;;;0.10;;
62957;SDS011;49056;48.352;10.926;2023-04-02T06:50:12;0.20;;;0.00;;
62957;SDS011;49056;48.352;10.926;2023-04-02T07:01:16;0.30;;;0.13;;
62957;SDS011;49056;48.352;10.926;2023-04-02T07:06:38;0.10;;;0.10;;
62957;SDS011;49056;48.352;10.926;2023-04-02T07:11:58;0.10;;;0.10;;
62957;SDS011;49056;48.352;10.926;2023-04-02T07:17:19;0.25;;;0.10;;
62957;SDS011;49056;48.352;10.926;2023-04-02T07:22:40;0.22;;;0.17;;
62957;SDS011;49056;48.352;10.926;2023-04-02T07:28:01;0.80;;;0.20;;
62957;SDS011;49056;48.352;10.926;2023-04-02T07:33:22;0.47;;;0.20;;
62957;SDS011;49056;48.352;10.926;2023-04-02T07:38:43;0.43;;;0.20;;
62957;SDS011;49056;48.352;10.926;2023-04-02T07:44:03;0.20;;;0.20;;
62957;SDS011;49056;48.352;10.926;2023-04-02T07:49:23;0.20;;;0.10;;
62957;SDS011;49056;48.352;10.926;2023-04-02T07:54:44;0.33;;;0.20;;
62957;SDS011;49056;48.352;10.926;2023-04-02T08:00:04;0.10;;;0.10;;
62957;SDS011;49056;48.352;10.926;2023-04-02T08:05:26;0.10;;;0.10;;
62957;SDS011;49056;48.352;10.926;2023-04-02T08:10:47;0.20;;;0.10;;
62957;SDS011;49056;48.352;10.926;2023-04-02T08:16:07;0.82;;;0.28;;
62957;SDS011;49056;48.352;10.926;2023-04-02T08:21:28;0.40;;;0.17;;
62957;SDS011;49056;48.352;10.926;2023-04-02T08:26:48;0.10;;;0.10;;
62957;SDS011;49056;48.352;10.926;2023-04-02T08:32:09;0.20;;;0.20;;
62957;SDS011;49056;48.352;10.926;2023-04-02T08:37:31;0.30;;;0.30;;
62957;SDS011;49056;48.352;10.926;2023-04-02T08:43:08;0.10;;;0.10;;
62957;SDS011;49056;48.352;10.926;2023-04-02T08:48:32;0.30;;;0.20;;
62957;SDS011;49056;48.352;10.926;2023-04-02T08:53:54;0.25;;;0.20;;
62957;SDS011;49056;48.352;10.926;2023-04-02T08:59:32;1.08;;;0.13;;
62957;SDS011;49056;48.352;10.926;2023-04-02T09:04:54;0.20;;;0.20;;
62957;SDS011;49056;48.352;10.926;2023-04-02T09:10:15;0.08;;;0.08;;
62957;SDS011;49056;48.352;10.926;2023-04-02T09:15:36;0.20;;;0.10;;
62957;SDS011;49056;48.352;10.926;2023-04-02T09:20:56;0.10;;;0.10;;
62957;SDS011;49056;48.352;10.926;2023-04-02T09:26:19;0.10;;;0.10;;
62957;SDS011;49056;48.352;10.926;2023-04-02T09:31:54;0.68;;;0.20;;
62957;SDS011;49056;48.352;10.926;2023-04-02T09:37:17;0.25;;;0.20;;
62957;SDS011;49056;48.352;10.926;2023-04-02T09:42:38;0.20;;;0.20;;
62957;SDS011;49056;48.352;10.926;2023-04-02T09:47:58;0.10;;;0.10;;
62957;SDS011;49056;48.352;10.926;2023-04-02T09:53:28;0.13;;;0.13;;
62957;SDS011;49056;48.352;10.926;2023-04-02T09:59:06;0.30;;;0.15;;
62957;SDS011;49056;48.352;10.926;2023-04-02T10:21:16;0.30;;;0.20;;
62957;SDS011;49056;48.352;10.926;2023-04-02T10:32:41;0.05;;;0.05;;
62957;SDS011;49056;48.352;10.926;2023-04-02T10:43:45;0.30;;;0.13;;
62957;SDS011;49056;48.352;10.926;2023-04-02T11:00:17;0.20;;;0.20;;
62957;SDS011;49056;48.352;10.926;2023-04-02T11:05:39;0.30;;;0.15;;
62957;SDS011;49056;48.352;10.926;2023-04-02T11:11:19;0.20;;;0.20;;
62957;SDS011;49056;48.352;10.926;2023-04-02T11:16:41;0.32;;;0.00;;
62957;SDS011;49056;48.352;10.926;2023-04-02T11:22:02;0.13;;;0.10;;
62957;SDS011;49056;48.352;10.926;2023-04-02T11:27:30;0.47;;;0.10;;
62957;SDS011;49056;48.352;10.926;2023-04-02T11:32:52;0.20;;;0.10;;
62957;SDS011;49056;48.352;10.926;2023-04-02T11:43:46;0.70;;;0.40;;
62957;SDS011;49056;48.352;10.926;2023-04-02T11:49:31;0.20;;;0.17;;
62957;SDS011;49056;48.352;10.926;2023-04-02T11:54:56;0.43;;;0.20;;
62957;SDS011;49056;48.352;10.926;2023-04-02T12:00:22;0.45;;;0.25;;
62957;SDS011;49056;48.352;10.926;2023-04-02T12:06:08;0.28;;;0.20;;
62957;SDS011;49056;48.352;10.926;2023-04-02T12:11:45;0.08;;;0.08;;
62957;SDS011;49056;48.352;10.926;2023-04-02T12:17:27;0.43;;;0.20;;
62957;SDS011;49056;48.352;10.926;2023-04-02T12:22:49;0.37;;;0.37;;
62957;SDS011;49056;48.352;10.926;2023-04-02T12:33:31;0.30;;;0.20;;
62957;SDS011;49056;48.352;10.926;2023-04-02T12:38:53;0.20;;;0.20;;
62957;SDS011;49056;48.352;10.926;2023-04-02T12:44:15;0.25;;;0.10;;
62957;SDS011;49056;48.352;10.926;2023-04-02T12:49:42;0.10;;;0.10;;
62957;SDS011;49056;48.352;10.926;2023-04-02T12:55:02;0.30;;;0.25;;
62957;SDS011;49056;48.352;10.926;2023-04-02T13:05:46;0.52;;;0.13;;
62957;SDS011;49056;48.352;10.926;2023-04-02T13:11:08;0.20;;;0.10;;
62957;SDS011;49056;48.352;10.926;2023-04-02T13:16:34;0.50;;;0.17;;
62957;SDS011;49056;48.352;10.926;2023-04-02T13:21:55;0.33;;;0.10;;
62957;SDS011;49056;48.352;10.926;2023-04-02T13:27:15;0.40;;;0.30;;
62957;SDS011;49056;48.352;10.926;2023-04-02T13:32:36;0.13;;;0.13;;
62957;SDS011;49056;48.352;10.926;2023-04-02T13:37:57;0.10;;;0.10;;
62957;SDS011;49056;48.352;10.926;2023-04-02T13:43:18;0.50;;;0.20;;
62957;SDS011;49056;48.352;10.926;2023-04-02T13:48:38;0.62;;;0.25;;
62957;SDS011;49056;48.352;10.926;2023-04-02T13:53:59;0.00;;;0.00;;
62957;SDS011;49056;48.352;10.926;2023-04-02T13:59:19;0.00;;;0.00;;
62957;SDS011;49056;48.352;10.926;2023-04-02T14:21:35;0.32;;;0.10;;
62957;SDS011;49056;48.352;10.926;2023-04-02T14:32:27;0.50;;;0.20;;
62957;SDS011;49056;48.352;10.926;2023-04-02T14:38:01;0.20;;;0.10;;
62957;SDS011;49056;48.352;10.926;2023-04-02T14:49:02;0.30;;;0.20;;
62957;SDS011;49056;48.352;10.926;2023-04-02T14:54:37;0.32;;;0.20;;
62957;SDS011;49056;48.352;10.926;2023-04-02T15:00:15;0.30;;;0.20;;
62957;SDS011;49056;48.352;10.926;2023-04-02T15:06:02;0.47;;;0.20;;
62957;SDS011;49056;48.352;10.926;2023-04-02T15:11:34;1.17;;;0.22;;
62957;SDS011;49056;48.352;10.926;2023-04-02T15:16:56;0.75;;;0.30;;
62957;SDS011;49056;48.352;10.926;2023-04-02T15:22:23;0.47;;;0.32;;
62957;SDS011;49056;48.352;10.926;2023-04-02T15:33:23;0.50;;;0.22;;
62957;SDS011;49056;48.352;10.926;2023-04-02T15:38:48;0.60;;;0.35;;
62957;SDS011;49056;48.352;10.926;2023-04-02T15:44:12;1.20;;;0.32;;
62957;SDS011;49056;48.352;10.926;2023-04-02T15:49:39;0.30;;;0.20;;
62957;SDS011;49056;48.352;10.926;2023-04-02T16:11:26;0.30;;;0.30;;
62957;SDS011;49056;48.352;10.926;2023-04-02T16:16:46;0.20;;;0.10;;
62957;SDS011;49056;48.352;10.926;2023-04-02T16:22:10;0.70;;;0.32;;
62957;SDS011;49056;48.352;10.926;2023-04-02T16:27:36;0.32;;;0.10;;
62957;SDS011;49056;48.352;10.926;2023-04-02T16:33:02;0.22;;;0.22;;
62957;SDS011;49056;48.352;10.926;2023-04-02T16:44:19;0.75;;;0.20;;
62957;SDS011;49056;48.352;10.926;2023-04-02T16:49:51;0.30;;;0.20;;
62957;SDS011;49056;48.352;10.926;2023-04-02T16:55:29;0.60;;;0.30;;
62957;SDS011;49056;48.352;10.926;2023-04-02T17:01:29;0.40;;;0.30;;
62957;SDS011;49056;48.352;10.926;2023-04-02T17:07:20;0.30;;;0.20;;
62957;SDS011;49056;48.352;10.926;2023-04-02T17:12:50;0.98;;;0.47;;
62957;SDS011;49056;48.352;10.926;2023-04-02T17:18:21;0.20;;;0.20;;
62957;SDS011;49056;48.352;10.926;2023-04-02T17:23:45;0.43;;;0.30;;
62957;SDS011;49056;48.352;10.926;2023-04-02T17:29:07;0.47;;;0.30;;
62957;SDS011;49056;48.352;10.926;2023-04-02T17:34:28;0.65;;;0.47;;
62957;SDS011;49056;48.352;10.926;2023-04-02T17:39:52;0.57;;;0.30;;
62957;SDS011;49056;48.352;10.926;2023-04-02T18:12:56;0.47;;;0.30;;
62957;SDS011;49056;48.352;10.926;2023-04-02T18:24:04;0.47;;;0.40;;
62957;SDS011;49056;48.352;10.926;2023-04-02T18:34:57;1.05;;;0.68;;
62957;SDS011;49056;48.352;10.926;2023-04-02T18:40:34;1.08;;;0.50;;
62957;SDS011;49056;48.352;10.926;2023-04-02T18:46:00;1.03;;;0.67;;
62957;SDS011;49056;48.352;10.926;2023-04-02T18:51:25;0.52;;;0.35;;
62957;SDS011;49056;48.352;10.926;2023-04-02T18:56:47;0.47;;;0.30;;
62957;SDS011;49056;48.352;10.926;2023-04-02T19:02:54;0.97;;;0.63;;
62957;SDS011;49056;48.352;10.926;2023-04-02T19:07:48;0.37;;;0.35;;
62957;SDS011;49056;48.352;10.926;2023-04-02T19:13:15;0.52;;;0.50;;
62957;SDS011;49056;48.352;10.926;2023-04-02T19:18:49;0.70;;;0.50;;
62957;SDS011;49056;48.352;10.926;2023-04-02T19:40:53;1.02;;;0.60;;
62957;SDS011;49056;48.352;10.926;2023-04-02T19:46:17;1.05;;;0.60;;
62957;SDS011;49056;48.352;10.926;2023-04-02T19:51:38;0.70;;;0.60;;
62957;SDS011;49056;48.352;10.926;2023-04-02T19:56:58;1.15;;;0.77;;
62957;SDS011;49056;48.352;10.926;2023-04-02T20:02:19;1.45;;;0.70;;
62957;SDS011;49056;48.352;10.926;2023-04-02T20:07:39;2.05;;;0.90;;
62957;SDS011;49056;48.352;10.926;2023-04-02T20:13:00;1.50;;;0.73;;
62957;SDS011;49056;48.352;10.926;2023-04-02T20:18:20;1.20;;;0.65;;
62957;SDS011;49056;48.352;10.926;2023-04-02T20:23:40;1.50;;;0.87;;
62957;SDS011;49056;48.352;10.926;2023-04-02T20:29:01;1.30;;;0.70;;
62957;SDS011;49056;48.352;10.926;2023-04-02T20:34:21;1.33;;;0.80;;
62957;SDS011;49056;48.352;10.926;2023-04-02T20:39:41;1.73;;;0.75;;
62957;SDS011;49056;48.352;10.926;2023-04-02T20:45:02;1.50;;;1.05;;
62957;SDS011;49056;48.352;10.926;2023-04-02T20:50:24;2.05;;;0.95;;
62957;SDS011;49056;48.352;10.926;2023-04-02T20:55:44;1.37;;;0.87;;
62957;SDS011;49056;48.352;10.926;2023-04-02T21:01:09;1.30;;;0.87;;
62957;SDS011;49056;48.352;10.926;2023-04-02T21:06:31;1.20;;;0.80;;
62957;SDS011;49056;48.352;10.926;2023-04-02T21:11:51;2.40;;;1.30;;
62957;SDS011;49056;48.352;10.926;2023-04-02T21:17:12;1.90;;;1.10;;
62957;SDS011;49056;48.352;10.926;2023-04-02T21:22:32;1.35;;;1.00;;
62957;SDS011;49056;48.352;10.926;2023-04-02T21:27:52;1.70;;;0.98;;
62957;SDS011;49056;48.352;10.926;2023-04-02T21:33:13;1.50;;;1.10;;
62957;SDS011;49056;48.352;10.926;2023-04-02T21:38:33;1.60;;;1.00;;
62957;SDS011;49056;48.352;10.926;2023-04-02T21:43:54;2.10;;;1.23;;
62957;SDS011;49056;48.352;10.926;2023-04-02T21:49:15;1.65;;;0.80;;
62957;SDS011;49056;48.352;10.926;2023-04-02T21:54:36;1.67;;;1.02;;
62957;SDS011;49056;48.352;10.926;2023-04-02T21:59:56;2.30;;;1.45;;
62957;SDS011;49056;48.352;10.926;2023-04-02T22:05:16;2.05;;;1.00;;
62957;SDS011;49056;48.352;10.926;2023-04-02T22:10:37;2.07;;;1.00;;
62957;SDS011;49056;48.352;10.926;2023-04-02T22:16:01;1.77;;;1.00;;
62957;SDS011;49056;48.352;10.926;2023-04-02T22:21:22;2.05;;;1.27;;
62957;SDS011;49056;48.352;10.926;2023-04-02T22:26:43;1.90;;;1.08;;
62957;SDS011;49056;48.352;10.926;2023-04-02T22:32:04;1.70;;;1.20;;
62957;SDS011;49056;48.352;10.926;2023-04-02T22:37:24;2.33;;;1.40;;
62957;SDS011;49056;48.352;10.926;2023-04-02T22:42:44;2.47;;;1.10;;
62957;SDS011;49056;48.352;10.926;2023-04-02T22:48:05;1.35;;;0.90;;
62957;SDS011;49056;48.352;10.926;2023-04-02T22:53:25;2.27;;;1.10;;
62957;SDS011;49056;48.352;10.926;2023-04-02T22:58:46;2.25;;;1.33;;
62957;SDS011;49056;48.352;10.926;2023-04-02T23:04:06;2.08;;;1.15;;
62957;SDS011;49056;48.352;10.926;2023-04-02T23:09:27;2.22;;;1.25;;
62957;SDS011;49056;48.352;10.926;2023-04-02T23:14:47;1.95;;;1.05;;
62957;SDS011;49056;48.352;10.926;2023-04-02T23:20:07;2.03;;;1.00;;
62957;SDS011;49056;48.352;10.926;2023-04-02T23:25:28;2.85;;;1.50;;
62957;SDS011;49056;48.352;10.926;2023-04-02T23:30:48;1.50;;;1.10;;
62957;SDS011;49056;48.352;10.926;2023-04-02T23:36:09;1.83;;;1.20;;
62957;SDS011;49056;48.352;10.926;2023-04-02T23:41:30;1.73;;;1.25;;
62957;SDS011;49056;48.352;10.926;2023-04-02T23:46:51;1.80;;;1.10;;
62957;SDS011;49056;48.352;10.926;2023-04-02T23:52:11;2.42;;;1.25;;
62957;SDS011;49056;48.352;10.926;2023-04-02T23:57:31;1.77;;;1.03;;
